createdAt,value
2022-08-26T00:00:20.357Z,100158.59
2022-08-26T00:01:28.992Z,100154.06
2022-08-26T00:02:26.975Z,100154.38
2022-08-26T00:03:29.395Z,100154.70
2022-08-26T00:04:31.756Z,100155.22
2022-08-26T00:05:34.400Z,100155.73
2022-08-26T00:06:38.840Z,100151.34
2022-08-26T00:07:43.368Z,100154.22
2022-08-26T00:08:45.981Z,100153.71
2022-08-26T00:09:50.040Z,100161.48
2022-08-26T00:10:52.989Z,100154.89
2022-08-26T00:11:56.417Z,100161.29
2022-08-26T00:12:58.587Z,100150.69
2022-08-26T00:14:02.131Z,100148.98
2022-08-26T00:15:07.958Z,100159.75
2022-08-26T00:16:11.759Z,100151.82
2022-08-26T00:17:14.359Z,100149.63
2022-08-26T00:18:22.420Z,100152.46
2022-08-26T00:19:21.601Z,100153.30
2022-08-26T00:20:28.390Z,100150.09
2022-08-26T00:21:30.633Z,100151.23
2022-08-26T00:22:34.141Z,100147.98
2022-08-26T00:23:36.994Z,100142.13
2022-08-26T00:24:39.581Z,100143.82
2022-08-26T00:25:43.792Z,100095.78
2022-08-26T00:26:46.569Z,100152.11
2022-08-26T00:27:49.580Z,100139.42
2022-08-26T00:28:54.039Z,100144.69
2022-08-26T00:29:56.738Z,100143.50
2022-08-26T00:31:00.988Z,100143.53
2022-08-26T00:32:04.231Z,100148.06
2022-08-26T00:33:07.510Z,100149.25
2022-08-26T00:34:11.274Z,100141.83
2022-08-26T00:35:14.882Z,100152.23
2022-08-26T00:36:20.322Z,100147.16
2022-08-26T00:37:22.702Z,100145.66
2022-08-26T00:38:27.593Z,100145.30
2022-08-26T00:39:30.225Z,100146.13
2022-08-26T00:40:36.264Z,100148.16
2022-08-26T00:41:40.174Z,100146.71
2022-08-26T00:42:46.048Z,100143.98
2022-08-26T00:43:48.582Z,100141.25
2022-08-26T00:44:50.881Z,100137.36
2022-08-26T00:46:02.384Z,100139.23
2022-08-26T00:47:08.590Z,100142.40
2022-08-26T00:48:12.862Z,100138.95
2022-08-26T00:49:19.058Z,100144.03
2022-08-26T00:50:28.463Z,100143.35
2022-08-26T00:51:35.292Z,100139.98
2022-08-26T00:52:39.867Z,100145.53
2022-08-26T00:53:50.375Z,100145.73
2022-08-26T00:54:58.843Z,100136.92
2022-08-26T00:56:05.442Z,100137.40
2022-08-26T00:57:16.381Z,100138.23
2022-08-26T00:58:15.111Z,100132.52
2022-08-26T00:59:17.647Z,100142.31
2022-08-26T01:00:23.860Z,100140.30
2022-08-26T01:01:26.511Z,100132.84
2022-08-26T01:02:29.042Z,100135.90
2022-08-26T01:03:34.170Z,100139.30
2022-08-26T01:04:39.114Z,100139.98
2022-08-26T01:05:42.727Z,100134.70
2022-08-26T01:06:47.260Z,100137.23
2022-08-26T01:07:49.909Z,100137.40
2022-08-26T01:08:52.854Z,100135.42
2022-08-26T01:09:56.718Z,100129.88
2022-08-26T01:11:00.624Z,100139.98
2022-08-26T01:12:03.794Z,100137.28
2022-08-26T01:13:09.428Z,100136.38
2022-08-26T01:14:13.160Z,100133.05
2022-08-26T01:15:19.248Z,100126.98
2022-08-26T01:16:22.596Z,100126.61
2022-08-26T01:17:25.011Z,100137.31
2022-08-26T01:18:27.582Z,100132.13
2022-08-26T01:19:33.517Z,100132.92
2022-08-26T01:21:11.932Z,100121.26
2022-08-26T01:22:20.502Z,100129.86
2022-08-26T01:23:25.432Z,100126.41
2022-08-26T01:24:29.526Z,100128.68
2022-08-26T01:25:36.099Z,100134.58
2022-08-26T01:26:41.559Z,100131.58
2022-08-26T01:27:44.036Z,100131.27
2022-08-26T01:28:50.586Z,100133.34
2022-08-26T01:29:53.757Z,100125.63
2022-08-26T01:30:58.474Z,100123.55
2022-08-26T01:32:03.188Z,100132.05
2022-08-26T01:33:10.846Z,100124.84
2022-08-26T01:34:23.440Z,100128.11
2022-08-26T01:35:27.501Z,100120.84
2022-08-26T01:36:31.067Z,100127.84
2022-08-26T01:37:36.951Z,100127.53
2022-08-26T01:38:41.262Z,100126.20
2022-08-26T01:39:46.546Z,100120.07
2022-08-26T01:40:49.567Z,100119.23
2022-08-26T01:41:56.090Z,100116.85
2022-08-26T01:43:00.798Z,100125.77
2022-08-26T01:44:06.002Z,100122.08
2022-08-26T01:45:16.990Z,100119.55
2022-08-26T01:46:23.017Z,100124.38
2022-08-26T01:47:30.028Z,100123.62
2022-08-26T01:48:35.328Z,100119.95
2022-08-26T01:49:37.922Z,100124.31
2022-08-26T01:50:42.441Z,100117.41
2022-08-26T01:51:47.680Z,100097.56
2022-08-26T01:52:54.589Z,100116.32
2022-08-26T01:53:56.076Z,100106.73
2022-08-26T01:54:59.267Z,100118.11
2022-08-26T01:56:04.148Z,100109.42
2022-08-26T01:57:08.230Z,100111.33
2022-08-26T01:58:17.087Z,100113.09
2022-08-26T01:59:20.542Z,100117.09
2022-08-26T02:00:24.857Z,100114.70
2022-08-26T02:01:29.183Z,100113.72
2022-08-26T02:02:31.759Z,100111.17
2022-08-26T02:03:38.714Z,100109.02
2022-08-26T02:06:05.139Z,100115.18
2022-08-26T02:07:09.879Z,100111.02
2022-08-26T02:08:13.838Z,100117.40
2022-08-26T02:09:18.469Z,100114.33
2022-08-26T02:10:23.816Z,100113.34
2022-08-26T02:11:25.988Z,100117.59
2022-08-26T02:12:30.299Z,100115.63
2022-08-26T02:13:35.947Z,100116.19
2022-08-26T02:14:43.851Z,100106.53
2022-08-26T02:15:47.022Z,100119.56
2022-08-26T02:16:52.179Z,100111.48
2022-08-26T02:17:54.604Z,100118.13
2022-08-26T02:19:00.652Z,100120.74
2022-08-26T02:20:04.427Z,100106.98
2022-08-26T02:21:10.668Z,100113.02
2022-08-26T02:22:16.515Z,100116.84
2022-08-26T02:23:19.069Z,100119.69
2022-08-26T02:24:28.828Z,100119.45
2022-08-26T02:25:40.708Z,100118.92
2022-08-26T02:26:45.364Z,100114.30
2022-08-26T02:27:47.830Z,100121.46
2022-08-26T02:28:56.417Z,100114.91
2022-08-26T02:30:11.649Z,100112.30
2022-08-26T02:31:14.258Z,100122.53
2022-08-26T02:32:18.582Z,100123.21
2022-08-26T02:33:21.201Z,100072.52
2022-08-26T02:34:28.183Z,100118.80
2022-08-26T02:35:33.136Z,100118.35
2022-08-26T02:36:37.628Z,100111.00
2022-08-26T02:37:42.473Z,100115.29
2022-08-26T02:38:46.222Z,100117.75
2022-08-26T02:39:48.892Z,100113.69
2022-08-26T02:40:51.568Z,100113.77
2022-08-26T02:41:53.778Z,100114.38
2022-08-26T02:42:57.037Z,100126.27
2022-08-26T02:43:59.848Z,100119.38
2022-08-26T02:45:02.283Z,100118.27
2022-08-26T02:46:05.166Z,100118.80
2022-08-26T02:47:08.323Z,100115.58
2022-08-26T02:48:16.707Z,100119.97
2022-08-26T02:49:22.503Z,100123.66
2022-08-26T02:50:26.269Z,100120.12
2022-08-26T02:51:28.674Z,100120.36
2022-08-26T02:52:31.257Z,100120.20
2022-08-26T02:53:35.458Z,100124.30
2022-08-26T02:54:38.542Z,100121.41
2022-08-26T02:55:41.647Z,100122.88
2022-08-26T02:56:45.048Z,100118.19
2022-08-26T02:57:47.333Z,100121.08
2022-08-26T02:58:50.130Z,100121.47
2022-08-26T02:59:52.526Z,100126.46
2022-08-26T03:00:55.100Z,100123.68
2022-08-26T03:01:57.556Z,100139.91
2022-08-26T03:03:01.930Z,100121.08
2022-08-26T03:04:07.071Z,100127.15
2022-08-26T03:05:10.580Z,100129.84
2022-08-26T03:06:16.518Z,100118.16
2022-08-26T03:07:19.020Z,100132.43
2022-08-26T03:08:21.328Z,100134.73
2022-08-26T03:09:24.200Z,100134.73
2022-08-26T03:10:28.079Z,100136.83
2022-08-26T03:11:33.046Z,100137.56
2022-08-26T03:12:35.285Z,100134.58
2022-08-26T03:13:38.142Z,100136.58
2022-08-26T03:14:41.205Z,100138.11
2022-08-26T03:15:43.886Z,100138.11
2022-08-26T03:16:50.177Z,100134.67
2022-08-26T03:17:52.381Z,100139.52
2022-08-26T03:18:54.716Z,100141.52
2022-08-26T03:19:57.507Z,100147.05
2022-08-26T03:21:10.797Z,100134.73
2022-08-26T03:22:14.544Z,100139.81
2022-08-26T03:23:18.618Z,100140.65
2022-08-26T03:24:21.346Z,100147.63
2022-08-26T03:25:24.296Z,100146.37
2022-08-26T03:26:28.360Z,100140.99
2022-08-26T03:27:30.750Z,100146.77
2022-08-26T03:28:35.031Z,100146.91
2022-08-26T03:29:39.211Z,100143.68
2022-08-26T03:30:45.062Z,100152.04
2022-08-26T03:31:47.106Z,100151.60
2022-08-26T03:32:49.602Z,100149.86
2022-08-26T03:33:53.970Z,100153.61
2022-08-26T03:34:56.679Z,100158.00
2022-08-26T03:35:59.278Z,100152.47
2022-08-26T03:37:01.710Z,100150.37
2022-08-26T03:38:06.116Z,100153.49
2022-08-26T03:39:10.413Z,100155.89
2022-08-26T03:40:13.937Z,100152.04
2022-08-26T03:41:17.203Z,100151.20
2022-08-26T03:42:21.483Z,100151.64
2022-08-26T03:43:23.854Z,100154.03
2022-08-26T03:44:26.752Z,100149.80
2022-08-26T03:45:29.003Z,100154.59
2022-08-26T03:46:32.802Z,100148.52
2022-08-26T03:47:35.833Z,100141.59
2022-08-26T03:48:40.216Z,100154.59
2022-08-26T03:49:42.390Z,100154.19
2022-08-26T03:50:45.276Z,100150.91
2022-08-26T03:51:50.019Z,100155.59
2022-08-26T03:52:54.547Z,100155.45
2022-08-26T03:53:57.389Z,100154.19
2022-08-26T03:54:59.673Z,100160.25
2022-08-26T03:56:03.489Z,100152.04
2022-08-26T03:57:06.821Z,100144.42
2022-08-26T03:58:09.129Z,100154.44
2022-08-26T03:59:11.618Z,100153.05
2022-08-26T04:00:18.424Z,100152.47
2022-08-26T04:01:21.706Z,100159.41
2022-08-26T04:02:25.359Z,100148.81
2022-08-26T04:03:28.111Z,100135.77
2022-08-26T04:04:30.553Z,100151.80
2022-08-26T04:05:32.640Z,100146.66
2022-08-26T04:06:38.166Z,100151.89
2022-08-26T04:07:41.521Z,100149.06
2022-08-26T04:08:43.806Z,100155.17
2022-08-26T04:09:46.051Z,100138.06
2022-08-26T04:10:49.453Z,100146.91
2022-08-26T04:11:54.778Z,100149.60
2022-08-26T04:13:06.415Z,100141.09
2022-08-26T04:14:06.086Z,100150.57
2022-08-26T04:15:12.883Z,100148.03
2022-08-26T04:16:17.615Z,100149.88
2022-08-26T04:17:20.621Z,100142.45
2022-08-26T04:18:24.894Z,100145.48
2022-08-26T04:19:29.246Z,100143.48
2022-08-26T04:20:31.706Z,100136.92
2022-08-26T04:21:34.933Z,100133.78
2022-08-26T04:22:37.650Z,100133.55
2022-08-26T04:23:47.177Z,100139.56
2022-08-26T04:24:44.268Z,100141.91
2022-08-26T04:25:46.482Z,100135.81
2022-08-26T04:26:49.007Z,100136.92
2022-08-26T04:27:51.217Z,100134.23
2022-08-26T04:28:54.659Z,100126.80
2022-08-26T04:29:57.056Z,100127.21
2022-08-26T04:31:00.347Z,100128.34
2022-08-26T04:32:03.886Z,100100.04
2022-08-26T04:33:12.874Z,100123.95
2022-08-26T04:34:11.179Z,100133.27
2022-08-26T04:35:13.745Z,100127.66
2022-08-26T04:36:17.475Z,100131.87
2022-08-26T04:37:22.292Z,100137.34
2022-08-26T04:38:25.222Z,100128.81
2022-08-26T04:39:27.988Z,100132.11
2022-08-26T04:40:31.055Z,100140.59
2022-08-26T04:41:36.919Z,100137.27
2022-08-26T04:42:39.429Z,100130.28
2022-08-26T04:43:41.728Z,100131.50
2022-08-26T04:44:43.912Z,100135.45
2022-08-26T04:45:46.261Z,100133.29
2022-08-26T04:46:48.716Z,100134.20
2022-08-26T04:47:55.276Z,100138.75
2022-08-26T04:48:57.673Z,100140.61
2022-08-26T04:50:00.293Z,100128.30
2022-08-26T04:51:04.222Z,100136.14
2022-08-26T04:52:07.957Z,100139.42
2022-08-26T04:53:10.213Z,100138.83
2022-08-26T04:54:12.891Z,100136.39
2022-08-26T04:55:16.428Z,100132.48
2022-08-26T04:56:19.138Z,100130.16
2022-08-26T04:57:21.435Z,100132.70
2022-08-26T04:58:24.424Z,100126.39
2022-08-26T04:59:28.070Z,100130.48
2022-08-26T05:00:31.198Z,100130.32
2022-08-26T05:01:34.105Z,100129.14
2022-08-26T05:02:40.073Z,100128.52
2022-08-26T05:03:42.819Z,100132.20
2022-08-26T05:04:45.464Z,100129.05
2022-08-26T05:05:49.111Z,100134.89
2022-08-26T05:06:54.065Z,100134.38
2022-08-26T05:07:56.650Z,100124.36
2022-08-26T05:08:59.616Z,100126.73
2022-08-26T05:10:03.919Z,100122.66
2022-08-26T05:11:09.435Z,100125.47
2022-08-26T05:12:11.730Z,100112.22
2022-08-26T05:13:16.650Z,100129.66
2022-08-26T05:14:20.629Z,100127.67
2022-08-26T05:15:22.731Z,100131.23
2022-08-26T05:16:25.708Z,100121.36
2022-08-26T05:17:28.314Z,100068.70
2022-08-26T05:18:30.735Z,100123.48
2022-08-26T05:19:33.048Z,100123.33
2022-08-26T05:20:46.256Z,100125.20
2022-08-26T05:21:49.370Z,100100.89
2022-08-26T05:22:51.845Z,100123.86
2022-08-26T05:23:55.437Z,100130.92
2022-08-26T05:24:58.057Z,100124.70
2022-08-26T05:26:00.652Z,100125.89
2022-08-26T05:27:03.673Z,100128.27
2022-08-26T05:28:09.570Z,100124.38
2022-08-26T05:29:12.743Z,100129.26
2022-08-26T05:30:15.791Z,100133.27
2022-08-26T05:31:21.170Z,100124.78
2022-08-26T05:32:23.733Z,100125.92
2022-08-26T05:33:26.211Z,100126.09
2022-08-26T05:34:30.367Z,100129.47
2022-08-26T05:35:33.370Z,100125.05
2022-08-26T05:36:37.006Z,100127.27
2022-08-26T05:37:40.377Z,100125.67
2022-08-26T05:38:44.016Z,100130.99
2022-08-26T05:39:50.948Z,100122.50
2022-08-26T05:40:52.894Z,100128.34
2022-08-26T05:41:55.699Z,100128.78
2022-08-26T05:42:58.619Z,100132.77
2022-08-26T05:44:02.179Z,100128.19
2022-08-26T05:45:05.012Z,100132.05
2022-08-26T05:46:07.542Z,100133.69
2022-08-26T05:47:09.875Z,100126.50
2022-08-26T05:48:13.895Z,100139.11
2022-08-26T05:49:17.857Z,100139.76
2022-08-26T05:50:22.380Z,100138.42
2022-08-26T05:51:26.264Z,100135.64
2022-08-26T05:52:28.583Z,100137.81
2022-08-26T05:53:31.105Z,100129.50
2022-08-26T05:54:34.599Z,100133.39
2022-08-26T05:55:46.247Z,100138.67
2022-08-26T05:56:51.132Z,100128.05
2022-08-26T05:57:53.454Z,100131.95
2022-08-26T05:58:58.350Z,100138.21
2022-08-26T06:00:00.750Z,100137.48
2022-08-26T06:02:38.898Z,100138.63
2022-08-26T06:03:43.969Z,100133.94
2022-08-26T06:04:46.144Z,100144.22
2022-08-26T06:05:48.677Z,100138.50
2022-08-26T06:06:52.021Z,100138.64
2022-08-26T06:07:54.616Z,100138.91
2022-08-26T06:08:58.776Z,100137.78
2022-08-26T06:10:30.537Z,100137.78
2022-08-26T06:11:10.697Z,100131.41
2022-08-26T06:12:15.293Z,100138.80
2022-08-26T06:13:20.926Z,100132.05
2022-08-26T06:14:23.350Z,100134.71
2022-08-26T06:15:26.008Z,100135.09
2022-08-26T06:16:29.540Z,100135.86
2022-08-26T06:17:32.000Z,100129.79
2022-08-26T06:18:38.937Z,100135.58
2022-08-26T06:19:41.494Z,100083.41
2022-08-26T06:20:54.590Z,100137.62
2022-08-26T06:21:54.178Z,100133.07
2022-08-26T06:22:55.213Z,100139.14
2022-08-26T06:24:01.239Z,100131.66
2022-08-26T06:25:04.374Z,100133.46
2022-08-26T06:26:09.200Z,100136.81
2022-08-26T06:27:11.606Z,100128.60
2022-08-26T06:28:15.068Z,100128.60
2022-08-26T06:29:24.702Z,100129.81
2022-08-26T06:30:24.309Z,100127.34
2022-08-26T06:31:28.535Z,100127.73
2022-08-26T06:32:31.683Z,100126.82
2022-08-26T06:33:34.979Z,100122.02
2022-08-26T06:34:37.707Z,100118.66
2022-08-26T06:35:41.739Z,100126.19
2022-08-26T06:36:44.526Z,100117.48
2022-08-26T06:37:46.884Z,100116.81
2022-08-26T06:38:50.865Z,100110.91
2022-08-26T06:39:53.183Z,100119.77
2022-08-26T06:40:55.984Z,100116.91
2022-08-26T06:42:00.429Z,100112.26
2022-08-26T06:43:02.774Z,100110.77
2022-08-26T06:44:06.950Z,100115.06
2022-08-26T06:45:11.741Z,100116.98
2022-08-26T06:46:18.531Z,100120.55
2022-08-26T06:47:22.993Z,100117.61
2022-08-26T06:48:27.274Z,100120.25
2022-08-26T06:49:30.276Z,100119.50
2022-08-26T06:50:34.418Z,100118.41
2022-08-26T06:51:39.219Z,100121.56
2022-08-26T06:52:41.712Z,100120.59
2022-08-26T06:53:45.572Z,100115.86
2022-08-26T06:54:47.979Z,100122.22
2022-08-26T06:55:51.848Z,100118.32
2022-08-26T06:56:54.370Z,100111.43
2022-08-26T06:57:57.004Z,100113.77
2022-08-26T06:58:59.606Z,100114.16
2022-08-26T07:00:05.464Z,100107.30
2022-08-26T07:01:21.427Z,100055.05
2022-08-26T07:02:24.360Z,100110.89
2022-08-26T07:03:28.926Z,100107.96
2022-08-26T07:04:32.865Z,100110.27
2022-08-26T07:05:36.975Z,100105.68
2022-08-26T07:06:44.803Z,100106.30
2022-08-26T07:07:48.119Z,100112.61
2022-08-26T07:10:07.891Z,100120.39
2022-08-26T07:11:11.686Z,100119.30
2022-08-26T07:12:17.426Z,100112.20
2022-08-26T07:13:30.737Z,100112.20
2022-08-26T07:14:26.168Z,100116.81
2022-08-26T07:15:31.404Z,100115.13
2022-08-26T07:16:33.597Z,100115.11
2022-08-26T07:17:38.087Z,100107.97
2022-08-26T07:18:41.876Z,100119.12
2022-08-26T07:19:48.484Z,100111.10
2022-08-26T07:20:54.863Z,100103.35
2022-08-26T07:22:04.300Z,100104.21
2022-08-26T07:23:11.743Z,100110.27
2022-08-26T07:24:13.114Z,100101.66
2022-08-26T07:25:15.556Z,100105.82
2022-08-26T07:26:22.214Z,100098.22
2022-08-26T07:27:26.548Z,100107.91
2022-08-26T07:28:31.116Z,100101.89
2022-08-26T07:29:34.412Z,100098.13
2022-08-26T07:30:40.312Z,100094.75
2022-08-26T07:31:43.322Z,100100.39
2022-08-26T07:32:45.615Z,100094.90
2022-08-26T07:33:48.105Z,100098.31
2022-08-26T07:34:51.064Z,100092.24
2022-08-26T07:35:53.932Z,100096.37
2022-08-26T07:36:56.333Z,100094.26
2022-08-26T07:37:58.727Z,100104.54
2022-08-26T07:39:01.299Z,100103.47
2022-08-26T07:40:04.853Z,100100.28
2022-08-26T07:41:07.958Z,100099.84
2022-08-26T07:42:14.484Z,100096.31
2022-08-26T07:43:19.126Z,100097.76
2022-08-26T07:44:23.010Z,100099.08
2022-08-26T07:45:26.002Z,100092.33
2022-08-26T07:46:30.297Z,100095.70
2022-08-26T07:47:33.618Z,100092.78
2022-08-26T07:48:36.541Z,100092.86
2022-08-26T07:49:40.085Z,100086.92
2022-08-26T07:50:49.386Z,100088.77
2022-08-26T07:51:47.305Z,100092.97
2022-08-26T07:52:49.568Z,100084.28
2022-08-26T07:53:52.477Z,100093.09
2022-08-26T07:54:57.070Z,100081.80
2022-08-26T07:56:00.821Z,100090.36
2022-08-26T07:57:05.114Z,100082.59
2022-08-26T07:58:11.437Z,100077.05
2022-08-26T07:59:15.589Z,100079.34
2022-08-26T08:00:19.015Z,100071.19
2022-08-26T08:01:24.582Z,100081.30
2022-08-26T08:02:28.890Z,100059.05
2022-08-26T08:03:31.206Z,100074.52
2022-08-26T08:04:33.773Z,100075.48
2022-08-26T08:05:37.143Z,100071.73
2022-08-26T08:06:41.708Z,100071.39
2022-08-26T08:07:46.588Z,100069.37
2022-08-26T08:08:50.919Z,100077.52
2022-08-26T08:09:54.095Z,100069.15
2022-08-26T08:10:57.475Z,100063.29
2022-08-26T08:11:59.902Z,100064.08
2022-08-26T08:13:05.414Z,100064.98
2022-08-26T08:14:08.970Z,100064.81
2022-08-26T08:15:13.779Z,100063.17
2022-08-26T08:16:19.944Z,100053.48
2022-08-26T08:17:22.519Z,100053.01
2022-08-26T08:18:25.982Z,100051.84
2022-08-26T08:19:37.029Z,100056.05
2022-08-26T08:20:36.387Z,100057.00
2022-08-26T08:21:39.281Z,100050.19
2022-08-26T08:22:41.539Z,100059.61
2022-08-26T08:23:44.324Z,100058.73
2022-08-26T08:24:46.676Z,100053.83
2022-08-26T08:25:52.851Z,100043.55
2022-08-26T08:26:55.425Z,100043.81
2022-08-26T08:27:58.896Z,100051.50
2022-08-26T08:29:01.061Z,100046.91
2022-08-26T08:30:06.350Z,100053.14
2022-08-26T08:31:09.085Z,100003.72
2022-08-26T08:32:12.257Z,100050.59
2022-08-26T08:33:16.458Z,100040.59
2022-08-26T08:34:21.551Z,100037.31
2022-08-26T08:35:24.665Z,100005.41
2022-08-26T08:36:32.233Z,100041.88
2022-08-26T08:37:32.798Z,100044.17
2022-08-26T08:38:35.333Z,100038.13
2022-08-26T08:39:37.718Z,100038.97
2022-08-26T08:40:43.478Z,100040.44
2022-08-26T08:42:15.404Z,100040.39
2022-08-26T08:43:37.829Z,100034.29
2022-08-26T08:44:40.893Z,100026.60
2022-08-26T08:45:49.973Z,100030.36
2022-08-26T08:46:56.634Z,100035.45
2022-08-26T08:48:27.789Z,100030.25
2022-08-26T08:49:32.081Z,100028.13
2022-08-26T08:50:47.091Z,100027.87
2022-08-26T08:51:53.795Z,100023.66
2022-08-26T08:53:04.485Z,100027.41
2022-08-26T08:54:10.041Z,100027.95
2022-08-26T08:55:17.746Z,100018.28
2022-08-26T08:56:34.867Z,100032.98
2022-08-26T08:57:46.662Z,100025.48
2022-08-26T08:59:10.050Z,100021.75
2022-08-26T09:00:18.145Z,100019.16
2022-08-26T09:02:53.044Z,100014.30
2022-08-26T09:04:17.543Z,100011.17
2022-08-26T09:05:26.523Z,100016.50
2022-08-26T09:06:29.017Z,100021.75
2022-08-26T09:07:47.239Z,100019.89
2022-08-26T09:08:50.752Z,100023.05
2022-08-26T09:09:56.718Z,100018.63
2022-08-26T09:11:01.638Z,100014.86
2022-08-26T09:12:07.519Z,100022.44
2022-08-26T09:13:16.890Z,99980.27
2022-08-26T09:14:18.920Z,100028.79
2022-08-26T09:15:42.395Z,100017.26
2022-08-26T09:16:51.371Z,100015.97
2022-08-26T09:18:06.415Z,100018.88
2022-08-26T09:19:30.589Z,100014.47
2022-08-26T09:21:58.367Z,100018.16
2022-08-26T09:23:00.759Z,100014.64
2022-08-26T09:24:04.620Z,100007.06
2022-08-26T09:25:11.219Z,100011.91
2022-08-26T09:26:25.943Z,100013.78
2022-08-26T09:27:50.449Z,100004.55
2022-08-26T09:29:02.326Z,100016.68
2022-08-26T09:30:06.231Z,100010.58
2022-08-26T09:31:15.173Z,100013.77
2022-08-26T09:32:21.401Z,100011.70
2022-08-26T09:33:29.585Z,100019.67
2022-08-26T09:34:32.745Z,100012.34
2022-08-26T09:35:41.266Z,100013.35
2022-08-26T09:36:47.510Z,100001.42
2022-08-26T09:38:53.332Z,100010.94
2022-08-26T09:39:59.979Z,100014.28
2022-08-26T09:41:06.192Z,100009.19
2022-08-26T09:42:24.011Z,100025.14
2022-08-26T09:43:27.096Z,100015.54
2022-08-26T09:44:30.413Z,100009.69
2022-08-26T09:45:34.219Z,100013.45
2022-08-26T09:46:46.929Z,100002.94
2022-08-26T09:47:55.128Z,100006.06
2022-08-26T09:49:17.761Z,100002.32
2022-08-26T09:50:54.759Z,100003.12
2022-08-26T09:52:12.816Z,100009.19
2022-08-26T09:53:28.517Z,100009.80
2022-08-26T09:54:30.252Z,99996.58
2022-08-26T09:55:30.902Z,100000.35
2022-08-26T09:56:36.867Z,99997.41
2022-08-26T09:57:49.033Z,100007.84
2022-08-26T09:58:54.508Z,100002.84
2022-08-26T09:59:57.298Z,100009.91
2022-08-26T10:01:01.778Z,100001.64
2022-08-26T10:02:26.846Z,99999.98
2022-08-26T10:03:32.588Z,99996.97
2022-08-26T10:04:35.252Z,100010.00
2022-08-26T10:05:44.079Z,100003.72
2022-08-26T10:07:02.232Z,100007.53
2022-08-26T10:08:17.195Z,100010.05
2022-08-26T10:09:20.330Z,100004.80
2022-08-26T10:10:27.581Z,100008.36
2022-08-26T10:11:41.306Z,100002.86
2022-08-26T10:12:52.881Z,99966.84
2022-08-26T10:15:14.869Z,100006.23
2022-08-26T10:16:24.559Z,100008.33
2022-08-26T10:17:32.766Z,100001.16
2022-08-26T10:18:46.299Z,99999.42
2022-08-26T10:20:23.590Z,100000.47
2022-08-26T10:21:41.848Z,99996.96
2022-08-26T10:23:01.276Z,100000.33
2022-08-26T10:24:06.147Z,99994.89
2022-08-26T10:25:13.082Z,100000.56
2022-08-26T10:26:41.160Z,99996.18
2022-08-26T10:28:09.237Z,99997.17
2022-08-26T10:29:15.320Z,100000.35
2022-08-26T10:30:21.338Z,99995.11
2022-08-26T10:31:30.535Z,99999.30
2022-08-26T10:32:40.907Z,100001.86
2022-08-26T10:33:45.881Z,99994.13
2022-08-26T10:34:48.239Z,100005.38
2022-08-26T10:35:53.944Z,99994.02
2022-08-26T10:38:13.244Z,100005.36
2022-08-26T10:39:22.377Z,99998.27
2022-08-26T10:40:29.517Z,99995.75
2022-08-26T10:41:35.983Z,99999.48
2022-08-26T10:42:42.028Z,100003.85
2022-08-26T10:43:59.182Z,99999.91
2022-08-26T10:45:15.136Z,100004.16
2022-08-26T10:46:21.856Z,99991.94
2022-08-26T10:47:27.777Z,99989.20
2022-08-26T10:48:35.835Z,99984.13
2022-08-26T10:49:39.120Z,99987.20
2022-08-26T10:50:47.431Z,99993.25
2022-08-26T10:51:53.448Z,99995.00
2022-08-26T10:53:14.311Z,100004.28
2022-08-26T10:54:18.486Z,99992.27
2022-08-26T10:55:24.268Z,99993.10
2022-08-26T10:56:30.739Z,99988.98
2022-08-26T10:57:47.438Z,99988.06
2022-08-26T10:59:02.531Z,99981.52
2022-08-26T11:00:12.671Z,99987.58
2022-08-26T11:01:41.520Z,99987.25
2022-08-26T11:02:47.778Z,99982.59
2022-08-26T11:03:59.857Z,99985.99
2022-08-26T11:05:05.174Z,100001.99
2022-08-26T11:06:25.514Z,100001.99
2022-08-26T11:07:33.410Z,100009.53
2022-08-26T11:08:39.301Z,99994.85
2022-08-26T11:09:44.587Z,99999.48
2022-08-26T11:10:59.867Z,99991.72
2022-08-26T11:12:06.782Z,99990.20
2022-08-26T11:13:07.111Z,99997.05
2022-08-26T11:14:28.428Z,99996.79
2022-08-26T11:15:29.995Z,99990.50
2022-08-26T11:16:35.897Z,99991.72
2022-08-26T11:17:52.631Z,99980.19
2022-08-26T11:18:54.708Z,99992.80
2022-08-26T11:20:01.959Z,100006.63
2022-08-26T11:21:02.871Z,100000.56
2022-08-26T11:22:08.114Z,99996.61
2022-08-26T11:23:23.180Z,99988.64
2022-08-26T11:24:46.221Z,99994.06
2022-08-26T11:26:10.952Z,99992.53
2022-08-26T11:27:38.626Z,99989.98
2022-08-26T11:28:49.596Z,99995.27
2022-08-26T11:30:07.975Z,99989.80
2022-08-26T11:31:13.786Z,99983.91
2022-08-26T11:32:38.343Z,99980.91
2022-08-26T11:35:06.672Z,99976.05
2022-08-26T11:36:12.613Z,99982.61
2022-08-26T11:37:17.445Z,99987.86
2022-08-26T11:38:23.495Z,99957.47
2022-08-26T11:39:36.727Z,99984.25
2022-08-26T11:40:37.477Z,99984.69
2022-08-26T11:41:43.695Z,99982.83
2022-08-26T11:42:52.364Z,99979.01
2022-08-26T11:43:56.671Z,99975.01
2022-08-26T11:45:01.353Z,99977.57
2022-08-26T11:46:10.680Z,99984.03
2022-08-26T11:47:15.985Z,99985.13
2022-08-26T11:48:21.618Z,99987.59
2022-08-26T11:49:27.768Z,99983.20
2022-08-26T11:50:30.802Z,99988.67
2022-08-26T11:51:38.228Z,99984.34
2022-08-26T11:52:39.003Z,99981.00
2022-08-26T11:53:43.240Z,99983.91
2022-08-26T11:55:03.480Z,99982.83
2022-08-26T11:56:18.773Z,99975.18
2022-08-26T11:57:23.358Z,99977.52
2022-08-26T11:58:26.856Z,99972.66
2022-08-26T12:00:45.601Z,99977.74
2022-08-26T12:01:50.680Z,99962.59
2022-08-26T12:02:53.698Z,99981.61
2022-08-26T12:03:56.731Z,99983.03
2022-08-26T12:05:01.153Z,99984.25
2022-08-26T12:06:14.227Z,99986.28
2022-08-26T12:07:23.799Z,99980.03
2022-08-26T12:08:27.977Z,99980.03
2022-08-26T12:09:33.804Z,99986.28
2022-08-26T12:10:36.948Z,99986.88
2022-08-26T12:11:39.812Z,99987.42
2022-08-26T12:12:42.304Z,99978.44
2022-08-26T12:13:57.109Z,99977.37
2022-08-26T12:15:18.535Z,99981.13
2022-08-26T12:16:29.025Z,99978.40
2022-08-26T12:17:34.354Z,99982.61
2022-08-26T12:18:38.409Z,99987.33
2022-08-26T12:19:40.710Z,99962.98
2022-08-26T12:20:43.814Z,99991.72
2022-08-26T12:21:47.842Z,99992.80
2022-08-26T12:22:50.178Z,99985.05
2022-08-26T12:23:56.006Z,99985.12
2022-08-26T12:25:04.741Z,99985.94
2022-08-26T12:26:17.077Z,99991.15
2022-08-26T12:27:38.481Z,99978.51
2022-08-26T12:30:19.287Z,99985.22
2022-08-26T12:31:24.325Z,99980.27
2022-08-26T12:32:29.614Z,99980.70
2022-08-26T12:33:34.499Z,99984.87
2022-08-26T12:34:37.615Z,99979.23
2022-08-26T12:35:40.928Z,99982.57
2022-08-26T12:36:54.166Z,99975.49
2022-08-26T12:37:57.866Z,99978.86
2022-08-26T12:39:14.617Z,99976.93
2022-08-26T12:41:51.178Z,99980.88
2022-08-26T12:42:54.221Z,99968.48
2022-08-26T12:43:56.769Z,99975.70
2022-08-26T12:45:06.059Z,99977.36
2022-08-26T12:46:12.566Z,99974.81
2022-08-26T12:47:35.191Z,99970.39
2022-08-26T12:48:35.326Z,99968.45
2022-08-26T12:49:40.813Z,99980.27